Time;durP1;ratioP1;P1;durP2;ratioP2;P2;SDS_P1;SDS_P2;PMS_P1;PMS_P2;Temp;Humidity;BMP_temperature;BMP_pressure;BME280_temperature;BME280_humidity;BME280_pressure;Samples;Min_cycle;Max_cycle;Signal;HPM_P1;HPM_P2
2023/01/16 00:00:19;;;;;;;9.23;2.35;;;4.20;99.90;;;4.07;100.00;98672.31;4961996;28;20327;-76
2023/01/16 00:02:46;;;;;;;8.15;2.10;;;4.20;99.90;;;4.09;100.00;98670.56;4963142;28;20287;-76
2023/01/16 00:05:13;;;;;;;8.73;2.22;;;4.20;99.90;;;4.11;100.00;98663.63;4960360;28;20237;-76
2023/01/16 00:07:40;;;;;;;9.23;2.13;;;4.20;99.90;;;4.01;100.00;98642.63;4958945;28;20258;-76
2023/01/16 00:10:08;;;;;;;12.90;3.25;;;4.10;99.90;;;4.13;100.00;98640.06;4964976;28;20264;-76
2023/01/16 00:12:35;;;;;;;10.15;2.55;;;4.20;99.90;;;4.16;100.00;98643.59;4964087;28;20253;-77
2023/01/16 00:15:03;;;;;;;9.93;2.50;;;4.20;99.90;;;4.13;100.00;98620.03;4967875;28;20253;-76
2023/01/16 00:17:30;;;;;;;10.15;2.55;;;4.30;99.90;;;4.06;100.00;98612.13;4961659;28;20288;-76
2023/01/16 00:19:57;;;;;;;13.27;3.30;;;4.20;99.90;;;4.03;100.00;98602.53;4966595;28;20616;-76
2023/01/16 00:22:24;;;;;;;10.50;2.65;;;4.20;99.90;;;3.97;100.00;98593.78;4966980;28;20232;-76
2023/01/16 00:24:51;;;;;;;7.13;1.90;;;4.10;99.90;;;4.00;100.00;98597.28;4961653;28;20259;-76
2023/01/16 00:27:18;;;;;;;8.93;2.17;;;4.20;99.90;;;4.00;100.00;98591.19;4961891;28;20226;-77
2023/01/16 00:29:45;;;;;;;6.55;1.70;;;4.10;99.90;;;4.01;100.00;98593.81;4967766;28;20288;-76
2023/01/16 00:32:14;;;;;;;8.57;2.22;;;3.70;99.90;;;4.09;99.74;98594.72;4969977;28;20250;-76
2023/01/16 00:34:42;;;;;;;7.65;1.98;;;4.20;99.90;;;4.10;99.53;98585.13;4972659;28;20247;-76
2023/01/16 00:37:09;;;;;;;8.85;2.33;;;4.30;99.90;;;4.03;99.53;98567.66;4972945;28;20261;-77
2023/01/16 00:39:38;;;;;;;14.00;3.42;;;4.20;99.90;;;4.07;99.24;98572.03;4957083;28;20252;-76
2023/01/16 00:42:06;;;;;;;8.10;2.08;;;4.20;99.90;;;4.21;98.79;98569.50;4966518;28;20237;-76
2023/01/16 00:44:33;;;;;;;13.07;3.17;;;4.30;99.90;;;4.08;98.92;98555.47;4962421;28;20291;-76
2023/01/16 00:47:00;;;;;;;13.10;3.25;;;4.20;99.90;;;4.06;98.75;98547.63;4963921;28;20244;-76
2023/01/16 00:49:27;;;;;;;8.80;2.28;;;4.20;99.90;;;4.03;98.96;98544.13;4968345;28;20228;-76
2023/01/16 00:51:54;;;;;;;14.15;3.40;;;4.30;99.90;;;4.02;99.38;98542.38;4964371;28;20288;-76
2023/01/16 00:54:21;;;;;;;12.70;3.05;;;4.10;99.90;;;4.09;99.09;98537.19;4963287;28;20240;-76
2023/01/16 00:56:48;;;;;;;9.05;2.30;;;4.20;99.90;;;4.03;99.37;98533.66;4965375;28;20312;-77
2023/01/16 00:59:15;;;;;;;11.35;2.90;;;4.20;99.90;;;4.02;99.16;98532.78;4962955;28;20324;-76
2023/01/16 01:01:42;;;;;;;11.48;2.97;;;4.10;99.90;;;3.96;99.27;98532.75;4961802;28;20225;-76
2023/01/16 01:04:11;;;;;;;7.60;1.98;;;4.10;99.90;;;3.93;99.69;98518.78;4961929;28;20319;-76
2023/01/16 01:06:40;;;;;;;10.10;2.58;;;4.10;99.90;;;3.88;99.65;98521.34;4965729;28;20295;-76
2023/01/16 01:09:07;;;;;;;7.53;2.00;;;4.00;99.90;;;3.88;99.92;98512.63;4964075;28;20287;-76
2023/01/16 01:11:34;;;;;;;8.35;2.28;;;4.00;99.90;;;3.83;99.75;98516.09;4960308;28;20225;-77
2023/01/16 01:14:01;;;;;;;8.63;2.30;;;4.00;99.90;;;3.82;100.00;98514.34;4962776;28;20265;-77
2023/01/16 01:16:28;;;;;;;6.93;1.90;;;4.00;99.90;;;3.82;100.00;98503.91;4966464;28;20256;-76
2023/01/16 01:18:56;;;;;;;8.35;2.17;;;4.00;99.90;;;3.78;100.00;98512.59;4965715;28;20234;-76
2023/01/16 01:21:23;;;;;;;13.40;3.20;;;3.90;99.90;;;3.79;100.00;98503.00;4970144;28;20268;-76
2023/01/16 01:23:50;;;;;;;7.80;2.00;;;3.90;99.90;;;3.73;100.00;98503.84;4971863;28;20265;-76
2023/01/16 01:26:18;;;;;;;8.18;2.15;;;3.90;99.90;;;3.70;100.00;98500.34;4964619;28;20245;-76
2023/01/16 01:28:45;;;;;;;9.27;2.35;;;3.80;99.90;;;3.70;100.00;98501.22;4970877;28;20265;-76
2023/01/16 01:31:12;;;;;;;8.45;2.30;;;3.80;99.90;;;3.77;100.00;98505.63;4969618;28;20241;-77
2023/01/16 01:33:40;;;;;;;11.43;2.78;;;3.90;99.90;;;3.78;100.00;98499.53;4961348;28;20587;-76
2023/01/16 01:36:08;;;;;;;7.47;1.88;;;3.90;99.90;;;3.75;100.00;98485.56;4962050;28;20244;-76
2023/01/16 01:38:36;;;;;;;9.02;2.40;;;3.90;99.90;;;3.69;100.00;98478.56;4967141;28;20252;-76
2023/01/16 01:41:03;;;;;;;9.43;2.40;;;3.90;99.90;;;3.69;100.00;98459.38;4966737;28;20296;-77
2023/01/16 01:43:45;;;;;;;9.48;2.45;;;3.80;99.90;;;3.66;100.00;98456.75;4965323;28;20293;-76
2023/01/16 01:46:39;;;;;;;7.28;1.95;;;3.80;99.90;;;3.64;100.00;98446.31;4969699;28;20261;-77
2023/01/16 01:49:29;;;;;;;8.73;2.28;;;3.80;99.90;;;3.70;100.00;98456.78;4965011;28;20234;-76
2023/01/16 01:52:02;;;;;;;10.40;2.58;;;3.90;99.90;;;3.74;100.00;98444.59;4963472;28;20245;-76
2023/01/16 01:54:40;;;;;;;10.27;2.60;;;3.80;99.90;;;3.67;100.00;98433.25;4963813;28;20249;-76
2023/01/16 01:57:13;;;;;;;9.70;2.45;;;3.80;99.90;;;3.64;100.00;98419.28;4964099;28;20303;-76
2023/01/16 01:59:47;;;;;;;8.70;2.20;;;3.80;99.90;;;3.66;100.00;98413.22;4963821;28;20232;-76
2023/01/16 02:02:20;;;;;;;10.23;2.58;;;3.90;99.90;;;3.68;99.70;98406.25;4969789;28;20286;-77
2023/01/16 02:04:51;;;;;;;9.18;2.33;;;3.80;99.90;;;3.64;99.72;98403.63;4963575;28;20320;-76
2023/01/16 02:07:20;;;;;;;7.45;1.90;;;3.80;99.90;;;3.60;99.67;98396.63;4967184;28;20292;-76
2023/01/16 02:09:47;;;;;;;9.20;2.35;;;3.70;99.90;;;3.56;99.71;98384.41;4967932;28;20316;-76
2023/01/16 02:12:16;;;;;;;9.25;2.33;;;3.80;99.90;;;3.52;99.92;98376.56;4967434;28;20307;-77
2023/01/16 02:14:46;;;;;;;5.45;1.48;;;3.70;99.90;;;3.59;99.40;98366.13;4964381;28;20398;-76
2023/01/16 02:20:25;;;;;;;10.90;2.58;;;3.70;99.90;;;3.51;99.42;98351.31;4971354;28;20245;-76
2023/01/16 02:23:16;;;;;;;7.07;1.80;;;3.60;99.90;;;3.43;99.50;98324.28;4975337;28;20268;-76
2023/01/16 02:26:02;;;;;;;7.63;2.03;;;3.60;99.90;;;3.36;99.33;98325.13;4955316;28;20301;-76
2023/01/16 02:29:08;;;;;;;9.38;2.45;;;3.50;99.90;;;3.41;99.39;98317.28;4961976;28;20303;-76
2023/01/16 02:31:53;;;;;;;9.90;2.53;;;3.60;99.90;;;3.37;99.67;98303.34;4968376;28;20225;-76
2023/01/16 02:35:10;;;;;;;8.80;2.28;;;3.50;99.90;;;3.34;99.78;98302.47;4971271;28;20255;-76
2023/01/16 02:38:39;;;;;;;9.02;2.38;;;3.50;99.90;;;3.31;99.64;98290.28;4969024;28;20283;-76
2023/01/16 02:41:18;;;;;;;8.60;2.20;;;3.60;99.90;;;3.28;99.83;98287.66;4953611;28;20261;-77
2023/01/16 02:43:59;;;;;;;6.32;1.75;;;3.40;99.90;;;3.24;100.00;98285.03;4965142;28;20299;-77
2023/01/16 02:46:55;;;;;;;32.15;7.57;;;3.40;99.90;;;3.36;99.40;98283.31;4953964;28;20262;-77
2023/01/16 02:49:53;;;;;;;11.60;2.85;;;3.50;99.90;;;3.29;99.44;98270.25;4963896;28;20260;-77
2023/01/16 02:52:48;;;;;;;8.45;2.13;;;3.40;99.90;;;3.32;99.42;98255.44;4965468;28;20259;-77
2023/01/16 02:55:15;;;;;;;7.78;2.00;;;3.50;99.90;;;3.40;99.26;98258.94;4945276;28;20316;-76
2023/01/16 02:57:49;;;;;;;14.10;3.42;;;3.50;99.90;;;3.40;99.09;98245.88;4962161;28;20312;-76
2023/01/16 03:00:19;;;;;;;9.07;2.30;;;3.50;99.90;;;3.37;99.52;98235.44;4961871;28;20328;-77
2023/01/16 03:02:46;;;;;;;9.45;2.40;;;3.50;99.90;;;3.36;99.30;98223.25;4966776;28;20229;-76
2023/01/16 03:05:13;;;;;;;10.02;2.58;;;3.50;99.90;;;3.27;99.46;98215.38;4969301;28;20237;-76
2023/01/16 03:08:31;;;;;;;13.43;3.25;;;3.40;99.90;;;3.22;99.42;98201.44;4963449;28;20313;-76
2023/01/16 03:11:10;;;;;;;8.60;2.20;;;3.40;99.90;;;3.18;99.40;98205.78;4986806;28;20244;-76
2023/01/16 03:14:15;;;;;;;8.18;2.17;;;3.30;99.90;;;3.15;99.22;98192.72;4970317;28;20221;-76
2023/01/16 03:16:54;;;;;;;7.88;2.08;;;3.30;99.90;;;3.05;99.58;98172.69;4958626;28;20252;-76
2023/01/16 03:19:42;;;;;;;7.80;2.08;;;3.30;99.90;;;3.03;99.67;98163.09;4967645;28;20240;-76
2023/01/16 03:23:14;;;;;;;7.63;1.90;;;3.10;99.90;;;3.00;99.86;98165.69;4967453;28;20299;-76
2023/01/16 03:26:14;;;;;;;8.15;2.10;;;3.10;99.90;;;3.05;100.00;98161.38;4977761;28;20232;-76
2023/01/16 03:29:10;;;;;;;8.88;2.33;;;3.20;99.90;;;3.10;99.93;98152.66;4967494;28;20237;-76
2023/01/16 03:31:52;;;;;;;10.18;2.70;;;3.20;99.90;;;3.16;99.67;98147.47;4964946;28;20252;-77
2023/01/16 03:34:36;;;;;;;7.93;2.05;;;3.30;99.90;;;3.21;99.42;98137.91;4964731;28;20236;-77
2023/01/16 03:37:11;;;;;;;8.82;2.35;;;3.30;99.90;;;3.20;99.15;98122.22;4964255;28;20237;-76
2023/01/16 03:39:54;;;;;;;7.00;1.95;;;3.30;99.90;;;3.12;99.38;98103.94;4958429;28;20279;-76
2023/01/16 03:42:33;;;;;;;8.98;2.33;;;3.30;99.90;;;3.16;98.86;98102.19;4965348;28;20638;-77
2023/01/16 03:45:10;;;;;;;5.88;1.67;;;3.20;99.90;;;3.04;99.31;98096.97;4967063;28;20287;-76
2023/01/16 03:47:43;;;;;;;8.27;2.15;;;3.20;99.90;;;3.08;99.15;98098.72;4963320;28;20654;-76
2023/01/16 03:50:14;;;;;;;8.38;2.13;;;3.20;99.90;;;3.07;99.36;98095.22;4959921;28;20782;-77
2023/01/16 03:52:48;;;;;;;9.52;2.40;;;3.20;99.90;;;3.03;99.50;98080.44;4961966;28;20316;-76
2023/01/16 03:55:22;;;;;;;9.75;2.45;;;3.20;99.90;;;3.03;99.69;98077.81;4961989;28;20235;-76
2023/01/16 03:58:03;;;;;;;14.45;3.65;;;3.10;99.90;;;3.00;100.00;98072.59;4947560;28;20325;-76
2023/01/16 04:00:45;;;;;;;13.88;3.35;;;3.10;99.90;;;3.04;99.77;98076.94;4965159;28;20294;-77
2023/01/16 04:03:27;;;;;;;7.30;2.03;;;3.10;99.90;;;3.07;99.81;98078.69;4960169;28;20241;-76
2023/01/16 04:06:13;;;;;;;8.80;2.25;;;3.20;99.90;;;3.10;100.00;98074.34;4986433;28;20240;-76
2023/01/16 04:08:43;;;;;;;8.93;2.22;;;3.20;99.90;;;3.09;100.00;98071.72;4961985;28;20236;-76
2023/01/16 04:11:14;;;;;;;8.35;2.17;;;3.20;99.90;;;3.06;99.90;98062.16;4985593;28;20267;-76
2023/01/16 04:13:45;;;;;;;10.07;2.50;;;3.20;99.90;;;3.01;99.85;98036.91;4955220;28;20225;-76
2023/01/16 04:16:14;;;;;;;7.43;1.98;;;3.20;99.90;;;2.90;100.00;98018.63;4967862;28;20291;-76
2023/01/16 04:18:41;;;;;;;7.38;1.90;;;3.10;99.90;;;2.88;100.00;98015.16;4958627;28;20768;-77
2023/01/16 04:21:09;;;;;;;7.05;1.85;;;3.00;99.90;;;2.78;100.00;98019.50;4981981;28;20264;-76
2023/01/16 04:23:36;;;;;;;11.02;2.88;;;3.00;99.90;;;2.74;100.00;98020.34;4967356;28;20332;-77
2023/01/16 04:26:03;;;;;;;6.75;1.77;;;3.00;99.90;;;2.87;100.00;98016.88;4960883;28;20234;-76
2023/01/16 04:28:30;;;;;;;11.52;2.90;;;3.00;99.90;;;2.83;100.00;98004.72;4966770;28;20233;-76
2023/01/16 04:30:58;;;;;;;7.07;1.88;;;3.10;99.90;;;2.75;100.00;97996.00;4964780;28;20321;-76
2023/01/16 04:33:25;;;;;;;6.95;1.90;;;2.90;99.90;;;2.80;100.00;97998.63;4970948;28;20229;-77
2023/01/16 04:35:52;;;;;;;9.38;2.42;;;2.90;99.90;;;2.85;100.00;98005.56;4971785;28;20693;-77
2023/01/16 04:38:19;;;;;;;9.93;2.53;;;3.00;99.90;;;2.85;100.00;97991.66;4967769;28;20332;-77
2023/01/16 04:40:46;;;;;;;9.50;2.45;;;3.00;99.90;;;2.76;100.00;97976.00;4969719;28;20253;-77
2023/01/16 04:43:13;;;;;;;7.47;1.98;;;2.90;99.90;;;2.70;100.00;97970.78;4953436;28;20272;-77
2023/01/16 04:45:40;;;;;;;7.97;2.10;;;3.00;99.90;;;2.63;100.00;97967.28;4968838;28;20330;-77
2023/01/16 04:48:08;;;;;;;6.57;1.77;;;2.80;99.90;;;2.61;100.00;97950.75;4957298;28;20288;-77
2023/01/16 04:50:35;;;;;;;8.27;2.15;;;2.80;99.90;;;2.54;100.00;97947.25;4959822;28;20233;-76
2023/01/16 04:53:02;;;;;;;7.57;1.95;;;2.70;99.90;;;2.49;100.00;97941.16;4962448;28;20236;-76
2023/01/16 04:55:30;;;;;;;8.82;2.35;;;2.60;99.90;;;2.47;100.00;97945.50;4987846;28;20229;-77
2023/01/16 04:57:57;;;;;;;10.65;2.72;;;2.60;99.90;;;2.43;100.00;97929.84;4972050;28;20241;-77
2023/01/16 05:00:24;;;;;;;7.30;1.98;;;2.60;99.90;;;2.40;100.00;97922.91;4966863;28;20685;-76
2023/01/16 05:02:53;;;;;;;6.80;1.88;;;2.60;99.90;;;2.36;100.00;97915.94;4973906;28;20279;-76
2023/01/16 05:05:22;;;;;;;10.80;2.78;;;2.50;99.90;;;2.30;100.00;97899.41;4980760;28;20241;-76
2023/01/16 05:08:15;;;;;;;14.85;3.63;;;2.50;99.90;;;2.29;100.00;97911.59;4979470;28;20265;-76
2023/01/16 05:10:36;;;;;;;8.50;2.17;;;2.40;99.90;;;2.28;100.00;97908.97;4967968;28;20264;-76
2023/01/16 05:13:03;;;;;;;13.48;3.42;;;2.50;99.90;;;2.23;100.00;97896.78;4966591;28;20229;-76
2023/01/16 05:15:30;;;;;;;13.18;3.28;;;2.40;99.90;;;2.22;100.00;97895.06;4972305;28;20758;-76
2023/01/16 05:17:58;;;;;;;17.15;4.05;;;2.40;99.90;;;2.17;100.00;97885.50;4966076;28;20241;-77
2023/01/16 05:20:25;;;;;;;12.98;3.08;;;3.10;99.90;;;2.18;100.00;97884.63;4961265;28;20321;-76
2023/01/16 05:22:52;;;;;;;15.98;3.85;;;2.30;99.90;;;2.24;100.00;97882.03;4958499;28;20639;-77
2023/01/16 05:25:19;;;;;;;9.77;2.42;;;2.50;99.90;;;2.29;100.00;97877.69;4950549;28;20348;-76
2023/01/16 05:27:50;;;;;;;35.47;7.85;;;2.50;99.90;;;2.30;100.00;97860.31;4963040;28;20534;-76
2023/01/16 05:30:17;;;;;;;9.80;2.47;;;2.40;99.90;;;2.29;100.00;97854.22;4963948;28;20287;-76
2023/01/16 05:32:45;;;;;;;9.75;2.40;;;2.40;99.90;;;2.22;100.00;97836.84;4964762;28;20225;-76
2023/01/16 05:35:13;;;;;;;13.73;3.35;;;2.40;99.90;;;2.26;100.00;97835.97;4961577;28;20246;-77
2023/01/16 05:37:40;;;;;;;14.32;3.47;;;2.40;99.90;;;2.21;100.00;97822.94;4968599;28;20225;-76
2023/01/16 05:40:09;;;;;;;9.48;2.35;;;2.40;99.90;;;2.23;100.00;97823.78;4965813;28;20238;-76
2023/01/16 05:42:36;;;;;;;11.73;2.92;;;2.40;99.90;;;2.21;100.00;97816.84;4961114;28;20252;-76
2023/01/16 05:45:04;;;;;;;8.18;2.17;;;2.40;99.90;;;2.24;100.00;97820.31;4981163;28;20328;-76
2023/01/16 05:47:31;;;;;;;10.55;2.67;;;2.40;99.90;;;2.22;100.00;97814.22;4964874;28;20253;-76
2023/01/16 05:49:58;;;;;;;12.80;3.15;;;2.50;99.90;;;2.23;100.00;97810.75;4960635;28;20256;-76
2023/01/16 05:52:26;;;;;;;15.02;3.58;;;2.50;99.90;;;2.19;100.00;97798.59;4968508;28;20369;-76
2023/01/16 05:54:54;;;;;;;11.15;2.75;;;2.40;99.90;;;2.15;100.00;97788.16;4984400;28;20311;-76
2023/01/16 05:57:22;;;;;;;14.98;3.70;;;2.30;99.90;;;2.10;100.00;97777.75;4962284;28;20236;-75
2023/01/16 05:59:50;;;;;;;11.10;2.80;;;2.30;99.90;;;2.05;100.00;97755.16;4977500;28;20236;-76
2023/01/16 06:02:19;;;;;;;11.82;2.83;;;2.20;99.90;;;1.96;100.00;97760.38;4966479;28;20241;-77
2023/01/16 06:04:47;;;;;;;7.43;1.90;;;2.20;99.90;;;1.89;100.00;97760.38;4970734;28;20572;-76
2023/01/16 06:07:14;;;;;;;7.65;1.95;;;2.10;99.90;;;1.89;100.00;97754.28;4981295;28;20232;-76
2023/01/16 06:09:41;;;;;;;7.65;2.00;;;2.10;99.90;;;1.88;100.00;97742.13;4980888;28;20230;-76
2023/01/16 06:12:18;;;;;;;7.93;2.10;;;2.10;99.90;;;1.86;100.00;97733.44;4954963;28;20784;-76
2023/01/16 06:14:45;;;;;;;7.25;1.88;;;2.00;99.90;;;1.84;100.00;97737.78;4972206;28;20243;-76
2023/01/16 06:17:15;;;;;;;7.68;2.00;;;2.00;99.90;;;1.82;100.00;97727.34;4973115;28;20229;-76
2023/01/16 06:19:44;;;;;;;10.32;2.58;;;2.00;99.90;;;1.82;100.00;97723.88;4972936;28;20232;-76
2023/01/16 06:22:12;;;;;;;10.90;2.72;;;2.00;99.90;;;1.81;100.00;97725.63;4972474;28;20261;-76
2023/01/16 06:24:40;;;;;;;9.13;2.35;;;2.20;99.90;;;1.78;100.00;97714.34;4972942;28;20228;-76
2023/01/16 06:27:07;;;;;;;15.05;3.70;;;2.00;99.90;;;1.80;100.00;97702.19;4967643;28;20276;-76
2023/01/16 06:29:34;;;;;;;12.10;3.08;;;2.00;99.90;;;1.86;100.00;97704.78;4961786;28;20240;-76
2023/01/16 06:32:01;;;;;;;11.25;2.85;;;2.10;99.90;;;1.82;100.00;97690.00;4966662;28;20249;-77
2023/01/16 06:34:28;;;;;;;12.05;2.97;;;2.00;99.90;;;1.82;100.00;97677.84;4967487;28;20253;-77
2023/01/16 06:36:55;;;;;;;12.52;3.13;;;2.40;99.90;;;1.88;100.00;97674.38;4970972;28;20255;-77
2023/01/16 06:39:22;;;;;;;11.20;2.80;;;2.00;99.90;;;1.72;100.00;97657.88;4980454;28;20252;-77
2023/01/16 06:41:49;;;;;;;11.18;2.70;;;2.40;99.90;;;1.81;100.00;97665.69;4966462;28;20319;-77
2023/01/16 06:44:16;;;;;;;14.15;3.50;;;2.00;99.90;;;1.83;100.00;97661.34;4966706;28;20264;-77
2023/01/16 06:46:43;;;;;;;12.23;3.03;;;2.00;99.90;;;1.81;100.00;97659.63;4961099;28;20742;-77
2023/01/16 06:49:11;;;;;;;11.70;2.92;;;2.10;99.90;;;1.73;100.00;97648.34;4960749;28;20769;-77
2023/01/16 06:51:38;;;;;;;11.63;2.90;;;1.90;99.90;;;1.74;100.00;97650.94;4975020;28;20231;-77
2023/01/16 06:54:05;;;;;;;6.95;1.85;;;1.90;99.90;;;1.78;100.00;97642.25;4962346;28;20237;-77
2023/01/16 06:56:32;;;;;;;8.30;2.13;;;2.00;99.90;;;1.83;100.00;97626.63;4963076;28;20228;-77
2023/01/16 06:58:59;;;;;;;2.30;0.77;;;2.00;99.90;;;1.76;100.00;97627.50;4953137;28;20371;-77
2023/01/16 07:01:26;;;;;;;18.45;4.45;;;1.90;99.90;;;1.68;100.00;97616.22;4959201;28;20263;-77
2023/01/16 07:03:53;;;;;;;12.38;3.08;;;1.90;99.90;;;1.64;100.00;97611.88;4958010;28;20240;-79
2023/01/16 07:06:20;;;;;;;13.50;3.33;;;1.80;99.90;;;1.61;100.00;97594.53;4968255;28;20236;-77
2023/01/16 07:08:53;;;;;;;11.90;3.20;;;1.90;99.90;;;1.65;100.00;97593.66;4964997;28;20265;-77
2023/01/16 07:11:20;;;;;;;11.00;2.72;;;2.00;99.90;;;1.71;100.00;97590.16;4959981;28;20226;-78
2023/01/16 07:13:47;;;;;;;13.88;3.40;;;1.90;99.90;;;1.61;100.00;97584.09;4960869;28;20247;-77
2023/01/16 07:24:37;;;;;;;10.32;2.60;;;1.80;99.90;;;1.55;100.00;97573.69;4980997;28;20236;-77
2023/01/16 07:27:08;;;;;;;8.55;2.20;;;1.70;99.90;;;1.48;100.00;97565.03;4972941;28;20236;-77
2023/01/16 07:29:37;;;;;;;13.95;3.38;;;2.30;99.90;;;1.47;100.00;97558.06;4960585;28;20268;-77
2023/01/16 07:32:04;;;;;;;8.45;2.13;;;1.60;99.90;;;1.41;100.00;97555.47;4970953;28;20299;-78
2023/01/16 07:34:32;;;;;;;13.10;3.08;;;1.60;99.90;;;1.42;100.00;97549.41;4965220;28;20229;-77
2023/01/16 07:36:59;;;;;;;7.18;1.85;;;1.60;99.90;;;1.40;100.00;97558.97;4957650;28;20233;-76
2023/01/16 07:39:25;;;;;;;9.93;2.50;;;1.60;99.90;;;1.44;100.00;97554.63;4955682;28;20263;-76
2023/01/16 07:41:52;;;;;;;9.18;2.25;;;1.60;99.90;;;1.52;100.00;97556.34;4979902;28;20258;-77
2023/01/16 07:44:24;;;;;;;13.45;3.20;;;2.20;99.90;;;1.40;100.00;97547.69;4973767;28;20236;-77
2023/01/16 07:46:51;;;;;;;12.10;2.97;;;1.60;99.90;;;1.40;100.00;97552.88;4966678;28;20824;-77
2023/01/16 07:49:18;;;;;;;10.20;2.53;;;1.60;99.90;;;1.53;100.00;97552.00;4963681;28;20234;-77
2023/01/16 07:51:45;;;;;;;6.30;1.67;;;1.70;99.90;;;1.60;100.00;97557.19;4966757;28;20795;-76
2023/01/16 07:54:13;;;;;;;8.18;2.13;;;2.00;99.90;;;1.71;100.00;97558.91;4979851;28;20267;-76
2023/01/16 07:56:40;;;;;;;10.50;2.58;;;1.90;99.90;;;1.75;100.00;97564.09;4963563;28;20229;-76
2023/01/16 07:59:07;;;;;;;12.68;2.95;;;2.00;99.90;;;1.90;100.00;97553.66;4964352;28;20272;-76
2023/01/16 08:01:34;;;;;;;14.35;3.55;;;2.00;99.90;;;2.00;100.00;97558.84;4965557;28;20241;-76
2023/01/16 08:04:02;;;;;;;18.73;4.43;;;2.10;99.90;;;2.03;100.00;97545.78;4970996;28;20627;-77
2023/01/16 08:06:29;;;;;;;14.18;3.47;;;2.20;99.90;;;2.11;100.00;97554.44;4953118;28;20245;-76
2023/01/16 08:08:56;;;;;;;9.93;2.45;;;2.30;99.90;;;2.17;100.00;97550.09;4948861;28;20265;-77
2023/01/16 08:11:35;;;;;;;7.75;1.92;;;2.30;99.90;;;2.30;100.00;97547.41;4950149;28;20284;-77
2023/01/16 08:14:07;;;;;;;8.48;2.10;;;2.50;99.90;;;2.44;100.00;97543.00;4969366;28;20653;-77
2023/01/16 08:16:34;;;;;;;11.02;2.72;;;2.50;99.90;;;2.57;100.00;97535.09;4945076;28;20225;-77
2023/01/16 08:19:02;;;;;;;9.25;2.30;;;2.80;99.90;;;2.59;100.00;97540.31;4963566;28;20268;-77
2023/01/16 08:21:29;;;;;;;9.52;2.42;;;2.90;99.90;;;2.54;100.00;97514.25;4950416;28;20297;-76
2023/01/16 08:23:56;;;;;;;11.05;2.58;;;2.70;99.90;;;2.52;100.00;97510.78;4958854;28;20235;-77
2023/01/16 08:26:23;;;;;;;9.95;2.55;;;2.90;99.90;;;2.57;100.00;97487.28;4959274;28;20303;-76
2023/01/16 08:28:52;;;;;;;9.38;2.35;;;2.80;99.90;;;2.67;100.00;97493.34;4958988;28;20237;-76
2023/01/16 08:31:19;;;;;;;16.58;3.90;;;2.70;99.90;;;2.73;100.00;97499.38;4949172;28;20233;-77
2023/01/16 08:33:49;;;;;;;9.55;2.40;;;2.80;99.90;;;2.70;100.00;97485.50;4952999;28;20228;-77
2023/01/16 08:36:19;;;;;;;10.93;2.67;;;2.80;99.90;;;2.66;100.00;97484.66;4954125;28;20233;-77
2023/01/16 08:38:48;;;;;;;9.65;2.53;;;3.10;99.90;;;2.67;100.00;97483.78;4944853;28;20233;-78
2023/01/16 08:52:36;;;;;;;9.77;2.42;;;3.30;99.90;;;3.48;100.00;97504.84;4952372;28;20284;-78
2023/01/16 08:55:05;;;;;;;10.48;2.50;;;3.60;99.90;;;3.38;100.00;97497.09;4961895;28;20300;-77
2023/01/16 08:57:33;;;;;;;10.98;2.65;;;3.50;99.90;;;3.33;100.00;97491.06;4964510;28;20315;-80
2023/01/16 09:00:01;;;;;;;19.88;5.93;;;3.40;99.90;;;3.54;100.00;97507.38;4966456;28;20708;-78
2023/01/16 09:02:28;;;;;;;11.45;2.67;;;3.60;99.90;;;3.56;100.00;97498.66;4973047;28;20287;-78
2023/01/16 09:04:55;;;;;;;9.02;2.17;;;3.70;99.90;;;3.52;100.00;97485.63;4987356;28;20264;-78
2023/01/16 09:07:23;;;;;;;8.43;2.25;;;3.80;99.90;;;3.52;100.00;97483.03;4966778;28;20245;-77
2023/01/16 09:09:50;;;;;;;7.13;1.73;;;3.70;99.90;;;3.47;100.00;97486.56;4952039;28;20226;-78
2023/01/16 09:15:04;;;;;;;9.23;2.33;;;3.60;99.90;;;3.50;100.00;97474.34;4952227;28;20242;-78
2023/01/16 09:17:31;;;;;;;9.55;2.38;;;3.60;99.90;;;3.50;100.00;97479.56;4973001;28;20260;-79
2023/01/16 09:19:58;;;;;;;8.70;2.17;;;3.60;99.90;;;3.52;100.00;97474.31;4979267;28;20268;-78
2023/01/16 09:22:29;;;;;;;7.50;2.00;;;3.60;99.90;;;3.52;100.00;97475.19;4969277;28;20328;-77
2023/01/16 09:24:56;;;;;;;9.48;2.33;;;3.70;99.90;;;3.52;100.00;97475.19;4951220;28;20233;-78
2023/01/16 09:27:24;;;;;;;7.82;2.05;;;3.70;99.90;;;3.50;100.00;97470.84;4954822;28;20245;-77
2023/01/16 09:29:52;;;;;;;7.70;1.98;;;3.60;99.90;;;3.51;100.00;97468.22;4970712;28;20240;-77
2023/01/16 09:32:20;;;;;;;14.77;3.53;;;3.70;99.90;;;3.51;100.00;97468.22;4971289;28;20295;-77
2023/01/16 09:34:47;;;;;;;12.60;3.10;;;3.60;99.90;;;3.50;100.00;97470.84;4965361;28;20260;-78
2023/01/16 09:37:14;;;;;;;8.68;2.13;;;3.50;99.90;;;3.49;100.00;97485.66;4963097;28;20229;-79
2023/01/16 09:39:41;;;;;;;9.63;2.40;;;3.60;99.90;;;3.48;100.00;97475.25;4964915;28;20252;-77
2023/01/16 09:45:21;;;;;;;12.13;3.03;;;3.60;99.90;;;3.48;100.00;97475.25;4963117;28;20236;-78
2023/01/16 09:47:55;;;;;;;15.85;3.65;;;3.60;99.90;;;3.51;100.00;97478.69;4967817;28;20229;-77
2023/01/16 09:50:37;;;;;;;7.70;1.98;;;3.60;99.90;;;3.53;100.00;97484.75;4969894;28;20224;-80
2023/01/16 09:59:12;;;;;;;10.55;2.60;;;4.00;99.90;;;3.85;100.00;97462.63;4961924;28;20256;-75
2023/01/16 10:01:49;;;;;;;8.93;2.22;;;4.10;99.90;;;3.79;100.00;97449.63;4966127;28;20295;-76
2023/01/16 10:04:25;;;;;;;9.48;2.42;;;4.00;99.90;;;3.89;100.00;97458.22;4982107;28;20232;-77
2023/01/16 10:07:17;;;;;;;10.60;2.65;;;4.00;99.90;;;3.86;100.00;97441.69;4966886;28;20324;-76
2023/01/16 10:10:14;;;;;;;7.97;2.05;;;4.00;99.90;;;4.06;100.00;97433.63;4961330;28;20257;-76
2023/01/16 10:13:00;;;;;;;10.55;2.53;;;4.10;99.90;;;4.36;100.00;97440.19;4970507;28;20228;-74
2023/01/16 10:16:15;;;;;;;9.77;2.33;;;4.40;99.90;;;4.44;100.00;97427.88;4963094;28;20240;-75
2023/01/16 10:19:12;;;;;;;5.07;1.30;;;4.40;99.90;;;4.48;100.00;97413.84;4957538;28;20233;-76
2023/01/16 10:21:54;;;;;;;3.75;1.05;;;4.60;99.90;;;4.53;100.00;97405.94;4982759;28;20254;-76
2023/01/16 10:24:46;;;;;;;4.53;1.25;;;4.60;99.90;;;4.64;100.00;97398.78;4968050;28;20311;-75
2023/01/16 10:27:33;;;;;;;4.55;1.23;;;4.80;99.90;;;4.71;100.00;97394.31;4969721;28;20296;-76
2023/01/16 10:30:16;;;;;;;2.25;0.70;;;4.80;99.90;;;4.81;100.00;97386.28;4972903;28;20233;-76
2023/01/16 10:33:09;;;;;;;5.85;1.50;;;4.90;99.90;;;4.85;100.00;97386.22;4969348;28;20225;-76
2023/01/16 10:35:43;;;;;;;9.18;2.38;;;4.90;99.90;;;4.96;100.00;97371.19;4974870;28;20292;-75
2023/01/16 10:38:43;;;;;;;1.58;0.50;;;5.00;99.90;;;5.05;100.00;97366.66;4954412;28;20328;-76
2023/01/16 10:50:21;;;;;;;4.88;1.30;;;5.50;99.90;;;5.35;97.72;97317.22;4955314;28;20283;-76
2023/01/16 10:53:08;;;;;;;6.03;1.58;;;5.40;99.90;;;5.34;97.68;97305.03;4969680;28;20659;-75
2023/01/16 10:55:45;;;;;;;7.53;1.98;;;5.40;99.90;;;5.39;96.88;97288.31;4961399;28;20232;-76
2023/01/16 10:58:35;;;;;;;4.15;1.10;;;5.50;99.90;;;5.49;95.39;97281.13;4967102;28;20249;-76
2023/01/16 11:01:02;;;;;;;3.33;0.90;;;5.60;99.90;;;5.49;95.54;97277.63;4978865;28;20237;-76
2023/01/16 11:03:36;;;;;;;4.43;1.25;;;5.60;99.90;;;5.53;95.03;97266.19;4976152;28;20257;-75
2023/01/16 11:06:13;;;;;;;7.20;1.90;;;5.60;99.90;;;5.55;94.85;97264.41;4956615;28;20666;-75
2023/01/16 11:08:47;;;;;;;6.55;1.80;;;5.60;99.90;;;5.59;95.13;97255.56;4952542;28;20725;-75
2023/01/16 11:20:31;;;;;;;7.35;1.90;;;5.80;99.90;;;5.94;91.61;97189.25;4969612;28;20225;-77
2023/01/16 11:23:05;;;;;;;6.50;1.67;;;6.00;99.90;;;5.99;90.62;97167.25;4960747;28;20300;-74
2023/01/16 11:25:33;;;;;;;8.82;2.33;;;6.10;99.90;;;5.99;91.02;97161.16;4968093;28;20321;-76
2023/01/16 11:28:07;;;;;;;10.68;2.60;;;6.00;99.90;;;6.08;90.29;97155.69;4978065;28;20263;-77
2023/01/16 11:30:43;;;;;;;5.53;1.58;;;6.20;99.90;;;6.16;90.26;97151.09;4975631;28;20257;-76
2023/01/16 11:33:24;;;;;;;7.32;1.92;;;6.20;99.90;;;6.25;89.86;97144.75;4973316;28;20237;-77
2023/01/16 11:36:00;;;;;;;8.07;2.03;;;6.30;99.90;;;6.26;89.50;97135.97;4961403;28;20304;-76
2023/01/16 11:38:34;;;;;;;9.30;2.47;;;6.30;99.90;;;6.32;89.94;97138.44;4952771;28;20248;-75
2023/01/16 11:41:08;;;;;;;6.65;1.70;;;6.40;99.90;;;6.32;89.78;97127.94;4960302;28;20265;-76